createdAt,value
2023-01-17T00:02:27.160Z,1.50
2023-01-17T00:05:31.778Z,1.50
2023-01-17T00:08:50.268Z,1.40
2023-01-17T00:11:38.403Z,1.40
2023-01-17T00:14:25.989Z,1.40
2023-01-17T00:17:14.125Z,1.40
2023-01-17T00:20:20.259Z,1.40
2023-01-17T00:23:25.767Z,1.40
2023-01-17T00:26:15.824Z,1.40
2023-01-17T00:29:02.422Z,1.40
2023-01-17T00:31:48.874Z,1.40
2023-01-17T00:34:35.472Z,1.20
2023-01-17T00:37:21.583Z,1.20
2023-01-17T00:40:08.494Z,1.10
2023-01-17T00:43:15.052Z,1.10
2023-01-17T00:46:19.952Z,1.10
2023-01-17T00:49:24.771Z,1.10
2023-01-17T00:52:30.117Z,1.00
2023-01-17T00:55:35.296Z,0.90
2023-01-17T00:58:42.394Z,0.90
2023-01-17T01:01:47.599Z,0.80
2023-01-17T01:04:52.473Z,0.80
2023-01-17T01:07:57.949Z,0.70
2023-01-17T01:11:03.597Z,0.70
2023-01-17T01:14:10.697Z,0.70
2023-01-17T01:17:19.033Z,0.70
2023-01-17T01:20:25.301Z,0.60
2023-01-17T01:23:30.267Z,0.60
2023-01-17T01:26:37.576Z,0.50
2023-01-17T01:29:44.246Z,0.50
2023-01-17T01:32:51.144Z,0.50
2023-01-17T01:35:39.589Z,0.50
2023-01-17T01:38:27.537Z,0.50
2023-01-17T01:41:14.952Z,0.50
2023-01-17T01:44:02.325Z,0.50
2023-01-17T01:46:51.334Z,0.40
2023-01-17T01:49:39.971Z,0.40
2023-01-17T01:52:29.237Z,0.40
2023-01-17T01:55:20.722Z,0.20
2023-01-17T01:58:12.597Z,0.20
2023-01-17T02:01:00.951Z,0.10
2023-01-17T02:03:51.257Z,0.20
2023-01-17T02:06:42.890Z,0.10
2023-01-17T02:09:33.396Z,0.20
2023-01-17T02:12:21.412Z,0.60
2023-01-17T02:15:09.724Z,0.00
2023-01-17T02:18:00.718Z,0.00
2023-01-17T02:21:07.392Z,-0.80
2023-01-17T02:24:21.649Z,-0.20
2023-01-17T02:27:13.764Z,-0.20
2023-01-17T02:30:18.831Z,-0.20
2023-01-17T02:33:21.012Z,-0.10
2023-01-17T02:36:12.827Z,-0.20
2023-01-17T02:39:03.194Z,-0.10
2023-01-17T02:41:53.473Z,-0.10
2023-01-17T02:44:42.730Z,-0.10
2023-01-17T02:47:31.044Z,-0.30
2023-01-17T02:50:20.489Z,-0.20
2023-01-17T02:53:17.684Z,-0.30
2023-01-17T02:56:12.090Z,-0.30
2023-01-17T02:59:07.447Z,-0.20
2023-01-17T03:02:03.574Z,-0.10
2023-01-17T03:04:52.704Z,-0.20
2023-01-17T03:07:43.044Z,-0.30
2023-01-17T03:10:32.800Z,-0.40
2023-01-17T03:13:20.189Z,-0.40
2023-01-17T03:16:13.330Z,-0.40
2023-01-17T03:19:01.595Z,-0.40
2023-01-17T03:21:49.517Z,-0.40
2023-01-17T03:24:37.222Z,-0.40
2023-01-17T03:27:26.431Z,-0.40
2023-01-17T03:30:14.318Z,-0.40
2023-01-17T03:33:02.056Z,-0.40
2023-01-17T03:35:49.399Z,-0.40
2023-01-17T03:38:37.610Z,-0.40
2023-01-17T03:41:26.175Z,-0.40
2023-01-17T03:44:15.479Z,-0.60
2023-01-17T03:47:03.069Z,-0.60
2023-01-17T03:49:50.295Z,-0.60
2023-01-17T03:52:37.830Z,-0.70
2023-01-17T03:55:25.355Z,-0.70
2023-01-17T03:58:16.282Z,-0.30
2023-01-17T04:01:05.644Z,-0.50
2023-01-17T04:03:54.012Z,-0.80
2023-01-17T04:06:41.527Z,-0.80
2023-01-17T04:09:34.030Z,-0.80
2023-01-17T04:12:21.333Z,-0.80
2023-01-17T04:15:09.370Z,-0.90
2023-01-17T04:17:58.929Z,-0.80
2023-01-17T04:20:46.681Z,-0.90
2023-01-17T04:23:34.200Z,-1.00
2023-01-17T04:26:24.790Z,-1.00
2023-01-17T04:29:12.471Z,-1.00
2023-01-17T04:32:00.714Z,-1.10
2023-01-17T04:34:50.299Z,-1.00
2023-01-17T04:37:38.038Z,-1.00
2023-01-17T04:40:26.702Z,-1.00
2023-01-17T04:43:14.072Z,-1.10
2023-01-17T04:46:01.714Z,-1.10
2023-01-17T04:48:49.156Z,-1.00
2023-01-17T04:51:38.945Z,-1.00
2023-01-17T04:54:27.354Z,-1.10
2023-01-17T04:57:16.476Z,-1.10
2023-01-17T05:00:08.183Z,-1.10
2023-01-17T05:02:55.763Z,-1.20
2023-01-17T05:05:45.126Z,-1.20
2023-01-17T05:08:34.181Z,0.40
2023-01-17T05:11:21.878Z,-1.20
2023-01-17T05:14:10.770Z,-1.60
2023-01-17T05:16:58.783Z,-1.20
2023-01-17T05:19:46.624Z,-1.10
2023-01-17T05:22:35.168Z,-1.10
2023-01-17T05:25:25.044Z,-1.20
2023-01-17T05:28:12.597Z,-1.10
2023-01-17T05:31:00.089Z,-1.10
2023-01-17T05:33:47.695Z,-1.10
2023-01-17T05:36:36.134Z,-1.10
2023-01-17T05:39:24.739Z,-1.20
2023-01-17T05:42:13.496Z,-1.20
2023-01-17T05:45:01.479Z,-1.20
2023-01-17T05:47:50.281Z,-1.20
2023-01-17T05:50:38.617Z,-2.80
2023-01-17T05:53:26.326Z,-0.80
2023-01-17T05:56:16.863Z,-0.60
2023-01-17T05:59:06.152Z,-0.70
2023-01-17T06:01:54.434Z,-0.70
2023-01-17T06:04:43.114Z,-0.40
2023-01-17T06:07:33.419Z,-0.90
2023-01-17T06:10:22.328Z,-1.00
2023-01-17T06:13:11.093Z,-1.20
2023-01-17T06:16:04.411Z,-1.30
2023-01-17T06:18:52.808Z,-1.10
2023-01-17T06:21:40.680Z,-1.50
2023-01-17T06:24:28.670Z,-1.60
2023-01-17T06:27:17.222Z,-1.50
2023-01-17T06:30:05.136Z,-1.60
2023-01-17T06:32:57.242Z,-1.60
2023-01-17T06:35:48.523Z,-1.60
2023-01-17T06:38:36.747Z,-1.60
2023-01-17T06:41:25.980Z,-1.60
2023-01-17T06:44:13.339Z,-1.80
2023-01-17T06:47:00.729Z,-1.80
2023-01-17T06:49:49.890Z,-1.70
2023-01-17T06:52:37.680Z,-1.70
2023-01-17T06:55:26.715Z,-1.50
2023-01-17T06:58:14.561Z,-1.30
2023-01-17T07:01:11.108Z,-1.30
2023-01-17T07:03:59.105Z,-1.60
2023-01-17T07:06:48.186Z,-1.60
2023-01-17T07:09:36.157Z,-1.60
2023-01-17T07:12:23.574Z,-1.60
2023-01-17T07:15:12.479Z,-1.60
2023-01-17T07:18:02.077Z,-1.60
2023-01-17T07:20:49.553Z,-1.50
2023-01-17T07:23:38.297Z,-1.60
2023-01-17T07:26:25.569Z,-1.50
2023-01-17T07:29:13.034Z,-1.50
2023-01-17T07:32:01.244Z,-1.40
2023-01-17T07:34:54.171Z,-1.60
2023-01-17T07:37:41.972Z,-1.60
2023-01-17T07:40:32.270Z,-1.50
2023-01-17T07:43:25.493Z,-1.50
2023-01-17T07:46:15.433Z,-1.50
2023-01-17T07:49:03.141Z,-1.30
2023-01-17T07:51:50.900Z,-1.60
2023-01-17T07:54:38.819Z,-1.50
2023-01-17T07:57:28.632Z,-1.50
2023-01-17T08:00:16.118Z,-1.50
2023-01-17T08:03:07.654Z,-1.50
2023-01-17T08:05:57.642Z,-1.40
2023-01-17T08:08:45.565Z,-1.40
2023-01-17T08:11:34.263Z,-1.50
2023-01-17T08:14:22.904Z,-1.40
2023-01-17T08:17:19.368Z,-1.40
2023-01-17T08:20:07.412Z,-1.40
2023-01-17T08:22:59.024Z,-1.40
2023-01-17T08:25:47.897Z,-1.40
2023-01-17T08:28:38.867Z,-1.40
2023-01-17T08:31:32.059Z,-1.40
2023-01-17T08:34:20.154Z,-1.30
2023-01-17T08:37:07.874Z,-0.70
2023-01-17T08:39:55.779Z,-1.90
2023-01-17T08:42:44.400Z,-1.20
2023-01-17T08:45:32.901Z,-1.20
2023-01-17T08:48:24.914Z,-1.20
2023-01-17T08:51:13.413Z,-1.20
2023-01-17T08:54:01.085Z,-1.20
2023-01-17T08:56:48.750Z,-1.20
2023-01-17T08:59:36.237Z,-1.30
2023-01-17T09:02:24.804Z,-1.20
2023-01-17T09:05:14.781Z,-1.10
2023-01-17T09:08:02.792Z,-1.10
2023-01-17T09:10:50.364Z,-1.00
2023-01-17T09:13:38.037Z,-1.10
2023-01-17T09:16:26.487Z,-1.10
2023-01-17T09:19:14.174Z,-1.10
2023-01-17T09:22:03.124Z,-1.10
2023-01-17T09:24:50.750Z,-1.10
2023-01-17T09:27:38.913Z,-1.00
2023-01-17T09:30:31.567Z,-1.00
2023-01-17T09:33:23.431Z,-1.00
2023-01-17T09:36:11.577Z,-1.00
2023-01-17T09:39:01.111Z,-0.90
2023-01-17T09:41:51.211Z,-1.00
2023-01-17T09:44:42.812Z,-0.80
2023-01-17T09:47:34.164Z,-0.90
2023-01-17T09:50:25.420Z,-0.80
2023-01-17T09:53:15.058Z,-0.70
2023-01-17T09:56:07.878Z,-0.70
2023-01-17T09:59:05.743Z,-0.30
2023-01-17T10:01:59.075Z,-0.40
2023-01-17T10:04:55.046Z,-0.20
2023-01-17T10:07:46.768Z,-0.10
2023-01-17T10:10:38.730Z,0.10
2023-01-17T10:13:34.412Z,0.10
2023-01-17T10:16:28.873Z,0.20
2023-01-17T10:19:24.126Z,0.20
2023-01-17T10:22:26.424Z,0.20
2023-01-17T10:25:22.290Z,0.30
2023-01-17T10:28:14.130Z,0.30
2023-01-17T10:31:06.741Z,0.30
2023-01-17T10:33:55.091Z,0.40
2023-01-17T10:36:46.919Z,0.50
2023-01-17T10:39:35.711Z,0.60
2023-01-17T10:42:24.897Z,0.60
2023-01-17T10:45:18.492Z,0.70
2023-01-17T10:48:12.847Z,0.80
2023-01-17T10:51:02.938Z,0.80
2023-01-17T10:53:56.915Z,0.80
2023-01-17T10:56:44.320Z,0.90
2023-01-17T10:59:33.724Z,0.90
2023-01-17T11:02:25.605Z,0.90
2023-01-17T11:05:18.891Z,0.80
2023-01-17T11:08:07.301Z,0.80
2023-01-17T11:10:55.403Z,0.80
2023-01-17T11:13:42.697Z,0.70
2023-01-17T11:16:32.549Z,0.60
2023-01-17T11:19:25.984Z,0.60
2023-01-17T11:22:16.542Z,0.70
2023-01-17T11:25:04.099Z,0.70
2023-01-17T11:28:02.039Z,0.70
2023-01-17T11:30:54.820Z,0.80
2023-01-17T11:33:47.991Z,0.80
2023-01-17T11:36:35.843Z,1.00
2023-01-17T11:39:27.727Z,0.80
2023-01-17T11:42:34.755Z,1.00
2023-01-17T11:45:26.358Z,1.00
2023-01-17T11:48:15.217Z,1.10
2023-01-17T11:51:03.736Z,1.30
2023-01-17T11:53:51.272Z,1.50
2023-01-17T11:56:45.094Z,2.80
2023-01-17T11:59:35.423Z,1.80
2023-01-17T12:02:38.427Z,1.90
2023-01-17T12:05:32.413Z,4.10
2023-01-17T12:08:25.081Z,1.80
2023-01-17T12:11:16.702Z,1.70
2023-01-17T12:14:12.489Z,1.80
2023-01-17T12:17:06.649Z,1.70
2023-01-17T12:20:01.426Z,1.60
2023-01-17T12:23:08.435Z,1.80
2023-01-17T12:26:00.614Z,1.80
2023-01-17T12:28:57.515Z,1.80
2023-01-17T12:31:54.959Z,1.90
2023-01-17T12:34:47.244Z,2.00
2023-01-17T12:37:38.472Z,2.10
2023-01-17T12:40:28.604Z,2.40
2023-01-17T12:43:19.710Z,2.50
2023-01-17T12:46:11.916Z,2.70
2023-01-17T12:49:04.566Z,2.90
2023-01-17T12:51:54.569Z,2.80
2023-01-17T12:54:44.151Z,2.80
2023-01-17T12:57:35.217Z,2.90
2023-01-17T13:00:25.729Z,3.10
2023-01-17T13:03:20.710Z,3.00
2023-01-17T13:06:12.332Z,2.90
2023-01-17T13:09:02.459Z,3.00
2023-01-17T13:11:52.213Z,2.80
2023-01-17T13:14:39.839Z,2.90
2023-01-17T13:17:32.811Z,2.50
2023-01-17T13:20:23.881Z,2.80
2023-01-17T13:23:17.920Z,2.70
2023-01-17T13:26:07.913Z,2.70
2023-01-17T13:29:00.314Z,2.80
2023-01-17T13:31:49.360Z,2.60
2023-01-17T13:34:42.533Z,2.60
2023-01-17T13:37:39.854Z,2.60
2023-01-17T13:40:37.179Z,2.60
2023-01-17T13:43:29.443Z,2.70
2023-01-17T13:46:23.750Z,3.40
2023-01-17T13:49:34.032Z,2.50
2023-01-17T13:52:33.536Z,2.60
2023-01-17T13:55:44.732Z,3.90
2023-01-17T13:58:58.605Z,2.80
2023-01-17T14:01:53.088Z,2.90
2023-01-17T14:04:58.575Z,2.90
2023-01-17T14:07:48.830Z,3.00
2023-01-17T14:10:38.534Z,3.20
2023-01-17T14:13:30.221Z,3.40
2023-01-17T14:16:27.948Z,3.60
2023-01-17T14:19:27.427Z,3.80
2023-01-17T14:22:22.942Z,4.30
2023-01-17T14:25:20.289Z,4.60
2023-01-17T14:28:21.173Z,5.10
2023-01-17T14:31:11.279Z,4.80
2023-01-17T14:34:14.099Z,5.70
2023-01-17T14:37:07.538Z,6.70
2023-01-17T14:39:55.352Z,6.00
2023-01-17T14:42:43.989Z,5.40
2023-01-17T14:45:32.579Z,4.90
2023-01-17T14:48:22.069Z,5.80
2023-01-17T14:51:15.150Z,4.10
2023-01-17T14:54:05.630Z,4.10
2023-01-17T14:57:10.345Z,4.40
2023-01-17T15:00:13.906Z,5.70
2023-01-17T15:03:08.018Z,3.20
2023-01-17T15:05:56.802Z,3.20
2023-01-17T15:08:46.407Z,2.70
2023-01-17T15:11:37.387Z,2.60
2023-01-17T15:14:28.321Z,0.70
2023-01-17T15:17:19.794Z,2.40
2023-01-17T15:20:10.051Z,2.30
2023-01-17T15:22:57.875Z,1.90
2023-01-17T15:25:47.906Z,1.90
2023-01-17T15:28:35.904Z,1.80
2023-01-17T15:31:30.194Z,1.00
2023-01-17T15:34:25.341Z,1.60
2023-01-17T15:37:23.894Z,1.30
2023-01-17T15:40:18.988Z,1.00
2023-01-17T15:43:18.006Z,1.10
2023-01-17T15:46:08.086Z,0.80
2023-01-17T15:49:09.046Z,0.70
2023-01-17T15:52:18.357Z,0.40
2023-01-17T15:55:14.008Z,0.40
2023-01-17T15:58:04.831Z,1.10
2023-01-17T16:00:59.771Z,0.70
2023-01-17T16:03:57.396Z,0.50
2023-01-17T16:06:47.021Z,1.40
2023-01-17T16:09:46.295Z,0.20
2023-01-17T16:12:37.675Z,1.30
2023-01-17T16:15:26.891Z,1.00
2023-01-17T16:18:17.999Z,2.60
2023-01-17T16:21:33.813Z,0.70
2023-01-17T16:24:35.387Z,0.70
2023-01-17T16:27:27.368Z,0.30
2023-01-17T16:30:17.567Z,0.10
2023-01-17T16:33:07.853Z,1.60
2023-01-17T16:36:13.154Z,0.60
2023-01-17T16:39:06.101Z,0.20
2023-01-17T16:42:01.161Z,0.20
2023-01-17T16:44:51.474Z,0.20
2023-01-17T16:47:41.668Z,-0.10
2023-01-17T16:50:35.374Z,-0.10
2023-01-17T16:53:30.115Z,0.00
2023-01-17T16:56:25.842Z,-0.20
2023-01-17T16:59:42.536Z,-2.00
2023-01-17T17:02:44.230Z,0.20
2023-01-17T17:05:37.881Z,0.10
2023-01-17T17:08:30.375Z,0.60
2023-01-17T17:11:24.342Z,-0.10
2023-01-17T17:14:19.108Z,2.80
2023-01-17T17:17:12.142Z,0.20
2023-01-17T17:20:10.699Z,-0.20
2023-01-17T17:23:01.492Z,-0.60
2023-01-17T17:25:59.765Z,-0.60
2023-01-17T17:28:52.186Z,-0.30
2023-01-17T17:31:41.377Z,-0.50
2023-01-17T17:34:32.399Z,1.00
2023-01-17T17:37:23.069Z,-0.30
2023-01-17T17:40:12.709Z,-0.80
2023-01-17T17:43:02.478Z,-1.00
2023-01-17T17:45:53.872Z,-0.90
2023-01-17T17:48:43.191Z,-0.80
2023-01-17T17:51:33.788Z,-1.00
2023-01-17T17:54:22.417Z,-0.20
2023-01-17T17:57:11.146Z,0.20
2023-01-17T18:00:01.360Z,-0.60
2023-01-17T18:02:54.666Z,-1.00
2023-01-17T18:05:42.691Z,-1.10
2023-01-17T18:08:33.896Z,-1.20
2023-01-17T18:11:23.703Z,-1.20
2023-01-17T18:14:12.814Z,-1.30
2023-01-17T18:17:02.775Z,-1.20
2023-01-17T18:19:50.609Z,-1.20
2023-01-17T18:22:38.630Z,1.00
2023-01-17T18:25:25.968Z,-1.30
2023-01-17T18:28:15.970Z,-0.80
2023-01-17T18:31:07.798Z,-1.00
2023-01-17T18:33:57.794Z,-1.20
2023-01-17T18:36:46.118Z,-1.30
2023-01-17T18:39:33.887Z,-1.30
2023-01-17T18:42:23.335Z,-1.30
2023-01-17T18:45:11.961Z,-1.20
2023-01-17T18:48:02.929Z,-1.30
2023-01-17T18:50:57.899Z,-1.40
2023-01-17T18:53:46.486Z,-1.30
2023-01-17T18:56:35.635Z,-1.50
2023-01-17T18:59:24.503Z,-1.10
2023-01-17T19:02:12.273Z,-4.10
2023-01-17T19:05:05.903Z,1.20
2023-01-17T19:08:03.220Z,-1.10
2023-01-17T19:10:51.217Z,-1.00
2023-01-17T19:13:39.138Z,-1.40
2023-01-17T19:16:34.981Z,-1.40
2023-01-17T19:19:23.019Z,-3.00
2023-01-17T19:22:10.719Z,-1.40
2023-01-17T19:24:59.876Z,-1.40
2023-01-17T19:27:49.237Z,-1.40
2023-01-17T19:30:40.991Z,-1.40
2023-01-17T19:33:28.344Z,-2.50
2023-01-17T19:36:17.324Z,-1.40
2023-01-17T19:39:06.697Z,-1.30
2023-01-17T19:41:57.921Z,-1.40
2023-01-17T19:44:45.530Z,-1.30
2023-01-17T19:47:34.067Z,-1.30
2023-01-17T19:50:22.292Z,-1.30
2023-01-17T19:53:10.683Z,-1.30
2023-01-17T19:55:59.029Z,-1.30
2023-01-17T19:58:48.254Z,-0.90
2023-01-17T20:01:35.896Z,-1.40
2023-01-17T20:04:23.569Z,-1.50
2023-01-17T20:07:11.298Z,-3.70
2023-01-17T20:09:58.814Z,-1.50
2023-01-17T20:12:46.193Z,-1.40
2023-01-17T20:15:35.889Z,-1.40
2023-01-17T20:18:23.626Z,-1.30
2023-01-17T20:21:12.473Z,-1.20
2023-01-17T20:24:00.657Z,-1.20
2023-01-17T20:26:51.949Z,-1.10
2023-01-17T20:29:40.789Z,-1.10
2023-01-17T20:32:30.725Z,-1.20
2023-01-17T20:35:21.626Z,-1.30
2023-01-17T20:38:10.585Z,-1.30
2023-01-17T20:40:58.279Z,-1.30
2023-01-17T20:43:47.722Z,-1.30
2023-01-17T20:46:38.413Z,-1.30
2023-01-17T20:49:28.471Z,-0.90
2023-01-17T20:52:16.762Z,-1.20
2023-01-17T20:55:04.461Z,-1.30
2023-01-17T20:57:56.027Z,-1.10
2023-01-17T21:00:45.458Z,-1.30
2023-01-17T21:03:34.942Z,-1.30
2023-01-17T21:06:24.590Z,-1.30
2023-01-17T21:09:17.356Z,-1.20
2023-01-17T21:12:05.275Z,-1.20
2023-01-17T21:14:55.411Z,-1.20
2023-01-17T21:17:44.632Z,-1.00
2023-01-17T21:20:36.639Z,-1.20
2023-01-17T21:23:56.869Z,-1.20
2023-01-17T21:26:45.939Z,-1.20
2023-01-17T21:29:39.123Z,-1.20
2023-01-17T21:32:28.652Z,-1.20
2023-01-17T21:35:19.138Z,-1.30
2023-01-17T21:38:10.481Z,-1.10
2023-01-17T21:41:06.618Z,-1.50
2023-01-17T21:44:00.110Z,-1.50
2023-01-17T21:46:48.012Z,-1.50
2023-01-17T21:49:35.465Z,-1.30
2023-01-17T21:52:31.387Z,-1.60
2023-01-17T21:55:36.585Z,-1.60
2023-01-17T21:58:45.177Z,-1.60
2023-01-17T22:01:34.678Z,-1.80
2023-01-17T22:04:22.751Z,-1.60
2023-01-17T22:07:14.447Z,-1.60
2023-01-17T22:10:02.172Z,-0.60
2023-01-17T22:12:49.836Z,-1.60
2023-01-17T22:15:40.228Z,-2.50
2023-01-17T22:18:35.442Z,-1.70
2023-01-17T22:21:24.187Z,-1.70
2023-01-17T22:24:16.140Z,-1.80
2023-01-17T22:27:06.533Z,-1.80
2023-01-17T22:29:54.004Z,-1.80
2023-01-17T22:32:43.216Z,-1.60
2023-01-17T22:35:32.817Z,-1.70
2023-01-17T22:38:21.069Z,-1.50
2023-01-17T22:41:09.714Z,-3.30
2023-01-17T22:43:58.893Z,-1.70
2023-01-17T22:46:46.476Z,-1.70
2023-01-17T22:49:34.076Z,-1.70
2023-01-17T22:52:25.659Z,-1.60
2023-01-17T22:55:13.832Z,-1.60
2023-01-17T22:58:04.743Z,-1.70
2023-01-17T23:00:53.009Z,-1.60
2023-01-17T23:03:42.071Z,-1.30
2023-01-17T23:06:30.576Z,-1.60
2023-01-17T23:09:20.431Z,-1.60
2023-01-17T23:12:08.492Z,-1.50
2023-01-17T23:15:13.377Z,-2.20
2023-01-17T23:18:19.102Z,-1.60
2023-01-17T23:21:12.930Z,-1.80
2023-01-17T23:24:01.528Z,-1.70
2023-01-17T23:27:04.369Z,-1.70
2023-01-17T23:29:52.469Z,-1.70
2023-01-17T23:32:40.220Z,-1.60
2023-01-17T23:35:28.384Z,-1.50
2023-01-17T23:38:29.799Z,-1.60
2023-01-17T23:41:34.453Z,-1.40
2023-01-17T23:44:24.255Z,-1.70
2023-01-17T23:47:11.961Z,-1.60
2023-01-17T23:49:59.286Z,-1.70
2023-01-17T23:52:46.744Z,-1.70
2023-01-17T23:55:36.011Z,-1.70
2023-01-17T23:58:24.431Z,-1.70
